Time;durP1;ratioP1;P1;durP2;ratioP2;P2;SDS_P1;SDS_P2;PMS_P1;PMS_P2;Temp;Humidity;BMP_temperature;BMP_pressure;BME280_temperature;BME280_humidity;BME280_pressure;Samples;Min_cycle;Max_cycle;Signal;HPM_P1;HPM_P2
2021/11/12 00:13:30;;;;;;;60.90;37.83;;;10.10;99.90;;;;;;5093166;28;20431;-68
2021/11/12 00:16:01;;;;;;;63.45;38.67;;;10.10;99.90;;;;;;5094482;28;20043;-68
2021/11/12 00:18:29;;;;;;;61.40;39.00;;;10.00;99.90;;;;;;5094477;28;20036;-68
2021/11/12 00:20:57;;;;;;;62.85;38.53;;;10.00;99.90;;;;;;5094598;28;20087;-68
2021/11/12 00:23:24;;;;;;;68.88;41.83;;;10.00;99.90;;;;;;5094292;28;20089;-67
2021/11/12 00:25:51;;;;;;;62.20;38.92;;;10.00;99.90;;;;;;5093357;28;20377;-68
2021/11/12 00:28:20;;;;;;;62.15;38.05;;;10.00;99.90;;;;;;5093233;28;20039;-68
2021/11/12 00:33:46;;;;;;;65.43;38.08;;;10.00;99.90;;;;;;5093042;28;20044;-68
2021/11/12 00:36:31;;;;;;;57.58;37.58;;;10.00;99.90;;;;;;5094331;28;20089;-67
2021/11/12 00:39:06;;;;;;;58.13;37.80;;;10.00;99.90;;;;;;5094039;28;20123;-68
2021/11/12 00:41:33;;;;;;;61.40;38.00;;;10.00;99.90;;;;;;5094165;28;20032;-68
2021/11/12 00:44:30;;;;;;;61.97;38.33;;;10.00;99.90;;;;;;5094538;28;20115;-68
2021/11/12 00:47:04;;;;;;;54.67;35.78;;;10.10;99.90;;;;;;5092960;28;20039;-68
2021/11/12 00:49:33;;;;;;;59.80;37.55;;;10.00;99.90;;;;;;5093669;28;20042;-68
2021/11/12 00:52:04;;;;;;;56.83;36.88;;;10.10;99.90;;;;;;5094161;28;20036;-68
2021/11/12 00:54:29;;;;;;;57.08;37.40;;;10.10;99.90;;;;;;5094827;28;20047;-67
2021/11/12 00:56:55;;;;;;;61.63;38.75;;;10.10;99.90;;;;;;5093990;28;20040;-68
2021/11/12 00:59:21;;;;;;;54.67;35.90;;;10.00;99.90;;;;;;5093666;28;20044;-68
2021/11/12 01:01:48;;;;;;;57.25;37.10;;;10.10;99.90;;;;;;5094134;28;20043;-68
2021/11/12 01:04:17;;;;;;;63.28;37.58;;;10.10;99.90;;;;;;5094587;28;20036;-68
2021/11/12 01:06:44;;;;;;;52.47;36.20;;;10.00;99.90;;;;;;5093529;28;20493;-67
2021/11/12 01:09:11;;;;;;;63.75;36.67;;;10.10;99.90;;;;;;5093453;28;20552;-67
2021/11/12 01:11:39;;;;;;;65.53;39.92;;;10.00;99.90;;;;;;5092644;28;20044;-68
2021/11/12 01:14:06;;;;;;;63.60;37.00;;;10.00;99.90;;;;;;5093642;28;20043;-68
2021/11/12 01:16:33;;;;;;;62.75;36.42;;;10.00;99.90;;;;;;5075429;28;20040;-68
2021/11/12 01:18:58;;;;;;;56.00;38.00;;;10.00;99.90;;;;;;5093014;28;20046;-68
2021/11/12 01:21:24;;;;;;;60.47;37.10;;;10.00;99.90;;;;;;5093507;28;20127;-67
2021/11/12 01:23:52;;;;;;;56.38;36.33;;;10.00;99.90;;;;;;5092213;28;20040;-68
2021/11/12 01:26:21;;;;;;;52.67;36.40;;;10.00;99.90;;;;;;5093568;28;20090;-67
2021/11/12 01:28:47;;;;;;;57.67;36.47;;;10.00;99.90;;;;;;5092050;28;20036;-68
2021/11/12 01:31:14;;;;;;;57.95;36.13;;;10.00;99.90;;;;;;5093439;28;20090;-68
2021/11/12 01:33:41;;;;;;;60.90;38.00;;;10.00;99.90;;;;;;5093566;28;20051;-67
2021/11/12 01:38:39;;;;;;;65.60;39.47;;;10.00;99.90;;;;;;5096174;28;20048;-67
2021/11/12 01:41:05;;;;;;;57.80;38.35;;;10.00;99.90;;;;;;5096268;28;20036;-68
2021/11/12 01:43:38;;;;;;;58.97;39.67;;;10.00;99.90;;;;;;5096225;28;20041;-68
2021/11/12 01:46:22;;;;;;;58.40;37.83;;;10.00;99.90;;;;;;5097397;28;20040;-68
2021/11/12 01:56:47;;;;;;;62.17;40.38;;;9.90;99.90;;;;;;5097578;28;20119;-68
2021/11/12 01:59:16;;;;;;;58.95;40.08;;;10.00;99.90;;;;;;5095885;28;20127;-67
2021/11/12 02:01:51;;;;;;;55.70;37.67;;;10.00;99.90;;;;;;5097274;28;20043;-68
2021/11/12 02:04:22;;;;;;;57.17;36.15;;;10.00;99.90;;;;;;5097641;28;20508;-67
2021/11/12 02:06:48;;;;;;;62.47;39.60;;;9.90;99.90;;;;;;5097286;28;20036;-68
2021/11/12 02:09:20;;;;;;;65.00;39.72;;;9.90;99.90;;;;;;5095383;28;20122;-67
2021/11/12 02:11:50;;;;;;;57.38;39.67;;;9.90;99.90;;;;;;5095914;28;20052;-68
2021/11/12 02:14:18;;;;;;;60.78;38.80;;;9.80;99.90;;;;;;5095716;28;20047;-68
2021/11/12 02:17:06;;;;;;;60.90;39.58;;;9.80;99.90;;;;;;5095663;28;20112;-68
2021/11/12 02:19:34;;;;;;;57.83;38.47;;;9.90;99.90;;;;;;5096768;28;20040;-67
2021/11/12 02:22:08;;;;;;;57.15;37.55;;;9.90;99.90;;;;;;5097180;28;20528;-67
2021/11/12 02:24:41;;;;;;;60.60;38.00;;;9.90;99.90;;;;;;5096903;28;20115;-68
2021/11/12 02:27:11;;;;;;;62.95;36.90;;;9.90;99.90;;;;;;5096872;28;20082;-67
2021/11/12 02:29:41;;;;;;;60.22;36.40;;;9.90;99.90;;;;;;5095282;28;20116;-68
2021/11/12 02:32:17;;;;;;;63.75;39.15;;;9.90;99.90;;;;;;5096596;28;20048;-68
2021/11/12 02:34:44;;;;;;;61.03;38.53;;;9.90;99.90;;;;;;5097187;28;20545;-68
2021/11/12 02:37:09;;;;;;;61.50;37.55;;;9.90;99.90;;;;;;5095228;28;20044;-68
2021/11/12 02:39:36;;;;;;;59.17;36.90;;;9.90;99.90;;;;;;5096114;28;20429;-68
2021/11/12 02:42:01;;;;;;;53.08;36.22;;;9.90;99.90;;;;;;5095273;28;20035;-68
2021/11/12 02:44:33;;;;;;;59.95;36.08;;;9.90;99.90;;;;;;5096967;28;20472;-68
2021/11/12 02:46:59;;;;;;;52.58;36.53;;;9.90;99.90;;;;;;5095471;28;20051;-68
2021/11/12 02:49:25;;;;;;;59.47;36.63;;;9.90;99.90;;;;;;5095667;28;20036;-68
2021/11/12 02:51:50;;;;;;;54.40;36.47;;;9.90;99.90;;;;;;5096231;28;20040;-68
2021/11/12 02:54:16;;;;;;;51.00;34.30;;;9.90;99.90;;;;;;5095109;28;20392;-68
2021/11/12 02:56:42;;;;;;;57.67;38.10;;;9.90;99.90;;;;;;5095243;28;20036;-68
2021/11/12 02:59:12;;;;;;;50.10;34.30;;;9.90;99.90;;;;;;5095977;28;20044;-67
2021/11/12 03:01:43;;;;;;;53.95;33.95;;;9.90;99.90;;;;;;5095879;28;20545;-68
2021/11/12 03:04:09;;;;;;;53.53;35.53;;;9.90;99.90;;;;;;5094711;28;20051;-68
2021/11/12 03:06:35;;;;;;;53.60;33.83;;;9.90;99.90;;;;;;5096001;28;20044;-68
2021/11/12 03:09:05;;;;;;;52.10;33.33;;;9.90;99.90;;;;;;5095605;28;20075;-67
2021/11/12 03:11:32;;;;;;;47.50;33.40;;;9.90;99.90;;;;;;5096454;28;20082;-68
2021/11/12 03:13:58;;;;;;;53.17;34.92;;;9.90;99.90;;;;;;5096298;28;20036;-68
2021/11/12 03:16:24;;;;;;;55.88;33.38;;;9.90;99.90;;;;;;5096014;28;20044;-68
2021/11/12 03:18:50;;;;;;;48.78;33.20;;;9.90;99.90;;;;;;5094197;28;20515;-68
2021/11/12 03:21:20;;;;;;;50.95;33.63;;;9.90;99.90;;;;;;5094615;28;20047;-68
2021/11/12 03:24:08;;;;;;;55.78;35.10;;;9.90;99.90;;;;;;5095575;28;20047;-68
2021/11/12 03:59:48;;;;;;;54.35;33.67;;;9.80;99.90;;;;;;5094043;28;20040;-68
2021/11/12 04:02:06;;;;;;;50.40;32.67;;;9.80;99.90;;;;;;5093872;28;20044;-67
2021/11/12 04:17:03;;;;;;;47.53;32.20;;;9.80;99.90;;;;;;5093525;28;20109;-68
2021/11/12 05:10:20;;;;;;;59.95;36.08;;;9.40;99.90;;;;;;5093202;28;20044;-67
2021/11/12 05:34:51;;;;;;;61.70;36.70;;;9.40;99.90;;;;;;5092112;28;20058;-68
2021/11/12 05:56:25;;;;;;;58.25;37.78;;;9.30;99.90;;;;;;5093164;28;20127;-67
2021/11/12 05:58:51;;;;;;;65.82;39.03;;;9.30;99.90;;;;;;5092699;28;20079;-68
2021/11/12 06:01:18;;;;;;;64.90;37.50;;;9.20;99.90;;;;;;5092514;28;20437;-68
2021/11/12 06:03:43;;;;;;;61.13;38.63;;;9.20;99.90;;;;;;5093557;28;20040;-68
2021/11/12 06:06:09;;;;;;;58.50;37.00;;;9.20;99.90;;;;;;5092043;28;20115;-67
2021/11/12 06:08:34;;;;;;;61.60;38.90;;;9.20;99.90;;;;;;5093219;28;20044;-68
2021/11/12 06:11:00;;;;;;;61.60;37.08;;;9.30;99.90;;;;;;5093465;28;20047;-68
2021/11/12 06:13:26;;;;;;;64.15;37.78;;;9.20;99.90;;;;;;5093016;28;20096;-68
2021/11/12 06:15:51;;;;;;;62.90;38.85;;;9.20;99.90;;;;;;5092832;28;20080;-67
2021/11/12 06:18:17;;;;;;;59.50;37.00;;;9.20;99.90;;;;;;5092791;28;20040;-68
2021/11/12 06:20:43;;;;;;;60.83;37.78;;;9.20;99.90;;;;;;5092670;28;20051;-67
2021/11/12 06:23:09;;;;;;;61.08;39.58;;;9.20;99.90;;;;;;5095632;28;20032;-68
2021/11/12 06:25:34;;;;;;;65.35;38.83;;;9.20;99.90;;;;;;5095443;28;20055;-67
2021/11/12 06:28:00;;;;;;;56.63;35.92;;;9.20;99.90;;;;;;5096989;28;20392;-68
2021/11/12 06:30:26;;;;;;;60.35;36.97;;;9.20;99.90;;;;;;5094973;28;20040;-68
2021/11/12 06:32:51;;;;;;;63.17;39.08;;;9.20;99.90;;;;;;5096531;28;20075;-68
2021/11/12 06:35:17;;;;;;;58.25;36.45;;;9.20;99.90;;;;;;5095292;28;20044;-67
2021/11/12 06:37:43;;;;;;;69.00;38.75;;;9.20;99.90;;;;;;5096393;28;20411;-68
2021/11/12 06:40:17;;;;;;;65.30;37.53;;;9.20;99.90;;;;;;5094851;28;20187;-67
2021/11/12 06:42:51;;;;;;;62.08;38.92;;;9.20;99.90;;;;;;5096273;28;20039;-67
2021/11/12 06:50:36;;;;;;;61.95;39.08;;;9.20;99.90;;;;;;5094647;28;20047;-68
2021/11/12 06:53:02;;;;;;;65.63;38.67;;;9.20;99.90;;;;;;5096088;28;20090;-67
2021/11/12 06:55:28;;;;;;;63.40;39.80;;;9.20;99.90;;;;;;5096410;28;20028;-68
2021/11/12 06:57:54;;;;;;;67.25;39.70;;;9.20;99.90;;;;;;5094964;28;20630;-67
2021/11/12 07:00:21;;;;;;;67.32;39.17;;;9.30;99.90;;;;;;5096198;28;20079;-68
2021/11/12 07:02:47;;;;;;;64.60;40.92;;;9.30;99.90;;;;;;5095897;28;20068;-68
2021/11/12 07:05:13;;;;;;;66.90;40.92;;;9.30;99.90;;;;;;5094893;28;20090;-67
2021/11/12 07:07:39;;;;;;;66.63;39.50;;;9.20;99.90;;;;;;5095863;28;20408;-67
2021/11/12 07:10:09;;;;;;;70.72;40.90;;;9.20;99.90;;;;;;5094538;28;20092;-67
2021/11/12 07:12:35;;;;;;;63.50;38.25;;;9.20;99.90;;;;;;5094791;28;20039;-67
2021/11/12 07:15:01;;;;;;;62.88;38.25;;;9.20;99.90;;;;;;5095645;28;20568;-68
2021/11/12 07:17:26;;;;;;;57.53;36.95;;;9.20;99.90;;;;;;5095554;28;20112;-67
2021/11/12 07:19:52;;;;;;;60.92;35.58;;;9.20;99.90;;;;;;5095022;28;20044;-67
2021/11/12 07:22:18;;;;;;;57.70;34.60;;;9.30;99.90;;;;;;5095605;28;20036;-68
2021/11/12 07:24:44;;;;;;;62.08;35.25;;;9.30;99.90;;;;;;5095603;28;20039;-68
2021/11/12 07:27:10;;;;;;;54.53;33.10;;;9.30;99.90;;;;;;5093950;28;20047;-68
2021/11/12 07:29:37;;;;;;;53.72;32.53;;;9.30;99.90;;;;;;5095225;28;20074;-68
2021/11/12 07:32:06;;;;;;;50.78;31.65;;;9.40;99.90;;;;;;5094399;28;20044;-68
2021/11/12 07:34:32;;;;;;;59.28;33.35;;;9.40;99.90;;;;;;5095056;28;20493;-68
2021/11/12 07:37:06;;;;;;;52.30;33.00;;;9.40;99.90;;;;;;5095208;28;20044;-68
2021/11/12 07:47:19;;;;;;;53.17;32.60;;;9.40;99.90;;;;;;5093879;28;20059;-68
2021/11/12 07:49:54;;;;;;;52.65;31.95;;;9.40;99.90;;;;;;5095136;28;20067;-67
2021/11/12 07:52:22;;;;;;;53.28;31.15;;;9.40;99.90;;;;;;5095086;28;20123;-67
2021/11/12 07:54:49;;;;;;;56.60;30.83;;;9.40;99.90;;;;;;5095509;28;20040;-67
2021/11/12 07:57:15;;;;;;;50.78;32.15;;;9.40;99.90;;;;;;5094238;28;20047;-68
2021/11/12 07:59:41;;;;;;;44.38;28.35;;;9.40;99.90;;;;;;5094757;28;20115;-68
2021/11/12 08:02:07;;;;;;;51.75;30.08;;;9.40;99.90;;;;;;5093405;28;20555;-68
2021/11/12 08:04:35;;;;;;;50.67;30.27;;;9.40;99.90;;;;;;5093773;28;20073;-67
2021/11/12 08:07:01;;;;;;;51.45;29.55;;;9.40;99.90;;;;;;5093778;28;20040;-68
2021/11/12 08:09:31;;;;;;;46.17;29.50;;;9.40;99.90;;;;;;5093132;28;20120;-68
2021/11/12 08:14:36;;;;;;;53.83;28.95;;;9.40;99.90;;;;;;5093527;28;20056;-68
2021/11/12 08:17:21;;;;;;;46.83;27.00;;;9.30;99.90;;;;;;5094796;28;20043;-68
2021/11/12 08:22:26;;;;;;;47.00;28.85;;;9.30;99.90;;;;;;5093628;28;20048;-68
2021/11/12 08:30:39;;;;;;;42.08;26.33;;;9.30;99.90;;;;;;5093070;28;20117;-68
2021/11/12 08:33:17;;;;;;;42.88;26.75;;;9.40;99.90;;;;;;5094482;28;20059;-68
2021/11/12 08:41:02;;;;;;;42.92;26.75;;;9.50;99.90;;;;;;5094195;28;20189;-67
2021/11/12 08:43:37;;;;;;;42.80;25.48;;;9.50;99.90;;;;;;5093990;28;20036;-68
2021/11/12 08:46:13;;;;;;;43.17;26.02;;;9.50;99.90;;;;;;5093504;28;20048;-68
2021/11/12 08:48:52;;;;;;;41.80;24.38;;;9.50;99.90;;;;;;5093858;28;20040;-67
2021/11/12 08:51:19;;;;;;;39.60;24.85;;;9.60;99.90;;;;;;5092732;28;20093;-68
2021/11/12 08:53:47;;;;;;;45.58;27.38;;;9.60;99.90;;;;;;5106709;28;20046;-68
2021/11/12 08:56:13;;;;;;;40.13;25.50;;;9.60;99.90;;;;;;5112862;28;20071;-68
2021/11/12 08:58:44;;;;;;;40.08;26.30;;;9.70;99.90;;;;;;5112602;28;20448;-68
2021/11/12 09:01:11;;;;;;;42.55;26.38;;;9.80;99.90;;;;;;5114387;28;20040;-68
2021/11/12 09:03:37;;;;;;;44.25;27.48;;;9.80;99.90;;;;;;5114123;28;20058;-68
2021/11/12 09:06:05;;;;;;;44.33;27.27;;;9.80;99.90;;;;;;5114545;28;20114;-67
2021/11/12 09:08:32;;;;;;;41.30;25.90;;;9.80;99.90;;;;;;5112253;28;20051;-67
2021/11/12 09:10:58;;;;;;;40.97;24.80;;;9.80;99.90;;;;;;5113984;28;20092;-67
2021/11/12 09:13:26;;;;;;;41.58;25.52;;;9.90;99.90;;;;;;5114274;28;20043;-67
2021/11/12 09:15:55;;;;;;;44.53;25.52;;;9.90;99.90;;;;;;5112492;28;20514;-67
2021/11/12 09:18:23;;;;;;;40.05;26.30;;;9.90;99.90;;;;;;5113925;28;20039;-68
2021/11/12 09:20:50;;;;;;;45.30;24.70;;;9.90;99.90;;;;;;5112930;28;20051;-72
2021/11/12 09:23:16;;;;;;;39.88;25.70;;;9.90;99.90;;;;;;5112376;28;20059;-72
2021/11/12 09:25:42;;;;;;;42.35;25.77;;;10.00;99.90;;;;;;5111129;28;20035;-71
2021/11/12 09:28:08;;;;;;;44.20;26.65;;;9.90;99.90;;;;;;5112760;28;20035;-71
2021/11/12 09:30:36;;;;;;;41.35;25.77;;;9.90;99.90;;;;;;5112488;28;20400;-72
2021/11/12 09:33:03;;;;;;;44.08;24.58;;;9.90;99.90;;;;;;5112565;28;20040;-71
2021/11/12 09:35:28;;;;;;;42.58;26.25;;;9.90;99.90;;;;;;5111992;28;20047;-71
2021/11/12 09:37:54;;;;;;;42.38;25.42;;;9.90;99.90;;;;;;5113800;28;20046;-71
2021/11/12 09:40:20;;;;;;;38.72;25.50;;;10.00;99.90;;;;;;5113303;28;20040;-71
2021/11/12 09:42:47;;;;;;;44.10;26.50;;;10.00;99.90;;;;;;5113548;28;20039;-71
2021/11/12 09:45:18;;;;;;;45.60;27.27;;;9.90;99.90;;;;;;5112350;28;20491;-72
2021/11/12 09:47:47;;;;;;;41.78;25.10;;;10.00;99.90;;;;;;5114418;28;20039;-71
2021/11/12 09:50:17;;;;;;;40.10;24.75;;;10.00;99.90;;;;;;5095424;28;20047;-71
2021/11/12 09:52:44;;;;;;;43.78;25.55;;;9.90;99.90;;;;;;5113515;28;20112;-71
2021/11/12 09:55:11;;;;;;;39.40;25.85;;;9.90;99.90;;;;;;5113976;28;20035;-71
2021/11/12 09:57:40;;;;;;;41.67;25.98;;;10.00;99.90;;;;;;5115654;28;20382;-71
2021/11/12 10:00:09;;;;;;;46.47;25.98;;;10.00;99.90;;;;;;5116049;28;20044;-71
2021/11/12 10:02:41;;;;;;;39.58;25.70;;;10.00;99.90;;;;;;5117179;28;20031;-71
2021/11/12 10:05:11;;;;;;;42.70;25.65;;;10.00;99.90;;;;;;5117690;28;20039;-71
2021/11/12 10:07:38;;;;;;;42.75;26.40;;;10.00;99.90;;;;;;5117525;28;20040;-71
2021/11/12 10:10:10;;;;;;;45.33;25.20;;;10.10;99.90;;;;;;5116175;28;20441;-71
2021/11/12 10:12:42;;;;;;;41.55;25.98;;;10.10;99.90;;;;;;5117264;28;20036;-71
2021/11/12 10:15:19;;;;;;;42.83;27.05;;;10.10;99.90;;;;;;5117999;27;20040;-71
2021/11/12 10:17:47;;;;;;;42.05;25.73;;;10.10;99.90;;;;;;5116979;28;20039;-70
2021/11/12 10:20:16;;;;;;;41.88;25.98;;;10.30;99.90;;;;;;5116973;28;20169;-69
2021/11/12 10:22:43;;;;;;;38.50;24.35;;;10.50;99.90;;;;;;5117172;28;20039;-69
2021/11/12 10:25:10;;;;;;;38.13;24.13;;;10.60;99.90;;;;;;5116501;28;20516;-69
2021/11/12 10:27:38;;;;;;;35.20;22.95;;;10.60;99.90;;;;;;5117473;28;20066;-70
2021/11/12 10:30:13;;;;;;;35.13;23.02;;;10.70;99.90;;;;;;5117135;27;20035;-70
2021/11/12 10:32:40;;;;;;;31.85;22.40;;;10.70;99.90;;;;;;5116008;28;20369;-70
2021/11/12 10:35:19;;;;;;;31.88;20.42;;;10.70;99.90;;;;;;5115957;28;20048;-70
2021/11/12 10:37:45;;;;;;;32.55;21.58;;;10.90;99.90;;;;;;5117009;28;20039;-70
2021/11/12 10:40:17;;;;;;;29.58;21.88;;;10.80;99.90;;;;;;5116388;28;20467;-70
2021/11/12 10:42:47;;;;;;;34.15;21.38;;;10.80;99.90;;;;;;5115934;28;20045;-70
2021/11/12 10:45:21;;;;;;;30.42;20.08;;;10.80;99.90;;;;;;5116893;28;20483;-70
2021/11/12 10:47:56;;;;;;;26.95;18.85;;;10.90;99.90;;;;;;5116741;28;20036;-70
2021/11/12 10:50:31;;;;;;;28.50;17.58;;;10.90;99.90;;;;;;5115108;28;20051;-70
2021/11/12 10:52:59;;;;;;;21.58;15.50;;;10.90;99.90;;;;;;5116588;28;20130;-70
2021/11/12 10:55:25;;;;;;;24.55;16.67;;;11.00;99.90;;;;;;5115202;28;20040;-70
2021/11/12 10:57:56;;;;;;;20.73;15.45;;;11.00;99.90;;;;;;5116998;28;20046;-70
2021/11/12 11:00:33;;;;;;;21.95;15.43;;;11.10;99.90;;;;;;5114830;28;20484;-70
2021/11/12 11:03:22;;;;;;;20.13;16.13;;;11.10;99.90;;;;;;5115733;28;20383;-70
2021/11/12 11:05:51;;;;;;;21.77;16.50;;;11.20;99.90;;;;;;5101604;28;20047;-70
2021/11/12 11:08:27;;;;;;;23.13;16.48;;;11.10;99.90;;;;;;5115524;28;20093;-70
2021/11/12 11:10:55;;;;;;;27.50;17.83;;;11.10;99.90;;;;;;5116523;28;20039;-70
2021/11/12 11:13:28;;;;;;;21.98;17.00;;;11.10;99.90;;;;;;5114696;28;20039;-70
2021/11/12 11:16:02;;;;;;;25.65;17.90;;;11.00;99.90;;;;;;5116274;28;20042;-70
2021/11/12 11:18:29;;;;;;;22.23;16.42;;;11.00;99.90;;;;;;5115657;28;20036;-71
2021/11/12 11:21:05;;;;;;;23.42;17.35;;;11.00;99.90;;;;;;5114679;28;20059;-70
2021/11/12 11:23:49;;;;;;;25.63;18.85;;;11.00;99.90;;;;;;5114623;28;20111;-69
2021/11/12 11:26:19;;;;;;;23.98;17.58;;;11.00;99.90;;;;;;5114674;28;20456;-70
2021/11/12 11:28:46;;;;;;;22.23;17.45;;;11.00;99.90;;;;;;5114384;28;20046;-70
2021/11/12 11:31:14;;;;;;;22.55;16.67;;;11.10;99.90;;;;;;5114636;28;20054;-70
2021/11/12 11:33:43;;;;;;;23.30;18.67;;;11.20;99.90;;;;;;5114648;28;20040;-70
2021/11/12 11:36:10;;;;;;;20.98;18.45;;;11.30;99.90;;;;;;5115945;28;20100;-70
2021/11/12 11:38:39;;;;;;;24.60;17.85;;;11.40;99.90;;;;;;5115608;28;20039;-70
2021/11/12 11:41:07;;;;;;;28.48;20.73;;;11.40;99.90;;;;;;5115562;28;20122;-70
2021/11/12 11:43:33;;;;;;;21.77;17.80;;;11.50;99.90;;;;;;5116013;28;20039;-70
2021/11/12 11:46:02;;;;;;;28.00;19.75;;;11.50;99.90;;;;;;5115956;28;20028;-70
2021/11/12 11:48:33;;;;;;;22.35;17.30;;;11.40;99.90;;;;;;5115272;27;20036;-70
2021/11/12 11:51:00;;;;;;;27.42;19.85;;;11.40;99.90;;;;;;5114259;28;20437;-70
2021/11/12 11:53:42;;;;;;;26.10;17.88;;;11.30;99.90;;;;;;5115599;28;20051;-70
2021/11/12 11:56:26;;;;;;;24.17;18.27;;;11.30;99.90;;;;;;5115350;28;20114;-69
2021/11/12 11:59:02;;;;;;;26.02;18.67;;;11.20;99.90;;;;;;5114950;28;20039;-70
2021/11/12 12:01:30;;;;;;;23.90;19.75;;;11.20;99.90;;;;;;5115316;28;20096;-70
2021/11/12 12:04:14;;;;;;;23.63;18.38;;;11.20;99.90;;;;;;5115070;28;20122;-70
2021/11/12 12:06:40;;;;;;;;;;;11.10;99.90;;;;;;5114281;28;20035;-70
2021/11/12 12:09:09;;;;;;;22.67;18.35;;;11.10;99.90;;;;;;5113940;28;19916;-70
2021/11/12 12:11:52;;;;;;;21.95;18.25;;;11.10;99.90;;;;;;5113751;28;20048;-70
2021/11/12 12:14:23;;;;;;;23.42;16.67;;;11.10;99.90;;;;;;5115249;28;20032;-70
2021/11/12 12:17:04;;;;;;;21.85;17.70;;;11.20;99.90;;;;;;5115204;28;20383;-70
2021/11/12 13:20:29;;;;;;;35.90;23.08;;;10.80;99.90;;;;;;5112219;28;20047;-70
2021/11/12 13:25:32;;;;;;;40.92;23.80;;;10.80;99.90;;;;;;5112796;28;20079;-70
2021/11/12 13:28:11;;;;;;;34.60;22.25;;;10.70;99.90;;;;;;5112524;28;20115;-70
2021/11/12 13:30:38;;;;;;;40.38;24.92;;;10.70;99.90;;;;;;5113401;28;20074;-70
2021/11/12 13:33:19;;;;;;;40.03;25.00;;;10.60;99.90;;;;;;5113081;28;20043;-70
2021/11/12 13:35:44;;;;;;;39.00;24.80;;;10.50;99.90;;;;;;5113970;28;20039;-69
2021/11/12 13:38:10;;;;;;;39.38;25.45;;;10.40;99.90;;;;;;5113941;28;20123;-69
2021/11/12 13:40:35;;;;;;;44.58;25.65;;;10.40;99.90;;;;;;5112331;28;20044;-70
2021/11/12 13:43:01;;;;;;;39.10;26.02;;;10.40;99.90;;;;;;5112424;28;20047;-70
2021/11/12 13:45:29;;;;;;;38.75;25.75;;;10.40;99.90;;;;;;5113320;28;20044;-71
2021/11/12 13:47:59;;;;;;;44.53;29.30;;;10.30;99.90;;;;;;5113053;28;20129;-71
2021/11/12 13:50:25;;;;;;;45.63;27.17;;;10.20;99.90;;;;;;5111920;28;20048;-71
2021/11/12 13:52:52;;;;;;;48.67;28.02;;;10.10;99.90;;;;;;5113690;28;20077;-72
2021/11/12 13:55:19;;;;;;;39.13;26.40;;;10.00;99.90;;;;;;5113886;28;20036;-71
2021/11/12 13:57:59;;;;;;;47.58;28.58;;;9.90;99.90;;;;;;5113406;28;20513;-71
2021/11/12 14:00:27;;;;;;;47.97;29.15;;;9.80;99.90;;;;;;5111762;28;20048;-71
2021/11/12 14:03:11;;;;;;;47.40;28.02;;;9.80;99.90;;;;;;5112397;28;20042;-71
2021/11/12 14:05:59;;;;;;;43.95;27.38;;;9.70;99.90;;;;;;5113684;28;20036;-71
2021/11/12 14:08:45;;;;;;;48.85;29.48;;;9.60;99.90;;;;;;5112928;28;20108;-71
2021/11/12 14:11:25;;;;;;;50.08;29.45;;;9.50;99.90;;;;;;5112221;28;20046;-71
2021/11/12 14:13:54;;;;;;;51.75;28.80;;;9.50;99.90;;;;;;5113596;28;20032;-71
2021/11/12 14:16:39;;;;;;;49.58;30.15;;;9.50;99.90;;;;;;5113346;28;20035;-71
2021/11/12 14:21:44;;;;;;;55.47;32.60;;;9.40;99.90;;;;;;5113358;28;20051;-71
2021/11/12 14:25:01;;;;;;;57.83;35.17;;;9.40;99.90;;;;;;5113931;28;20042;-71
2021/11/12 14:27:12;;;;;;;57.50;32.53;;;9.30;99.90;;;;;;5105648;28;20051;-71
2021/11/12 14:32:48;;;;;;;57.08;34.78;;;9.20;99.90;;;;;;5111914;28;20075;-71
2021/11/12 14:36:01;;;;;;;62.50;32.92;;;9.20;99.90;;;;;;5113651;28;20051;-71
2021/11/12 14:51:36;;;;;;;57.95;33.63;;;8.90;99.90;;;;;;5115895;28;20075;-71
2021/11/12 14:54:08;;;;;;;61.40;34.55;;;8.80;99.90;;;;;;5116925;28;20044;-71
2021/11/12 14:56:34;;;;;;;58.72;34.85;;;8.80;99.90;;;;;;5116533;28;20118;-71
2021/11/12 14:59:05;;;;;;;61.45;34.85;;;8.80;99.90;;;;;;5116441;28;20120;-71
2021/11/12 15:01:32;;;;;;;62.42;36.50;;;8.80;99.90;;;;;;5116918;28;20078;-71
2021/11/12 15:03:59;;;;;;;59.15;35.33;;;8.70;99.90;;;;;;5116702;28;20433;-71
2021/11/12 15:06:27;;;;;;;66.57;36.03;;;8.80;99.90;;;;;;5116417;28;20043;-69
2021/11/12 15:09:38;;;;;;;60.55;34.20;;;8.80;99.90;;;;;;5114513;28;20083;-70
2021/11/12 15:11:48;;;;;;;61.33;34.53;;;8.90;99.90;;;;;;5108070;28;20063;-69
2021/11/12 15:14:19;;;;;;;60.90;34.25;;;9.10;99.90;;;;;;5115027;28;20416;-69
2021/11/12 15:16:45;;;;;;;61.15;34.20;;;9.20;99.90;;;;;;5116277;28;20122;-69
2021/11/12 15:19:16;;;;;;;60.95;34.85;;;9.20;99.90;;;;;;5115621;28;20074;-70
2021/11/12 15:21:59;;;;;;;57.97;35.58;;;9.30;99.90;;;;;;5116203;28;20509;-69
2021/11/12 15:24:41;;;;;;;58.80;34.60;;;9.30;99.90;;;;;;5116150;28;20069;-70
2021/11/12 15:30:01;;;;;;;60.33;34.88;;;9.40;99.90;;;;;;5115450;28;20433;-70
2021/11/12 15:32:30;;;;;;;58.67;34.47;;;9.30;99.90;;;;;;5114439;28;20047;-69
2021/11/12 15:35:37;;;;;;;66.30;36.38;;;9.30;99.90;;;;;;5115756;28;20492;-69
2021/11/12 15:38:02;;;;;;;60.35;35.47;;;9.30;99.90;;;;;;5106842;28;20557;-69
2021/11/12 15:50:59;;;;;;;59.25;34.50;;;9.10;99.90;;;;;;5113859;28;20044;-69
2021/11/12 15:53:30;;;;;;;65.38;36.35;;;9.10;99.90;;;;;;5115340;28;20539;-69
2021/11/12 16:01:22;;;;;;;67.22;37.40;;;9.00;99.90;;;;;;5115333;28;20047;-69
2021/11/12 16:09:42;;;;;;;60.88;36.35;;;8.90;99.90;;;;;;5043015;28;20048;-70
2021/11/12 16:14:45;;;;;;;67.30;37.28;;;9.00;99.90;;;;;;5115057;28;20048;-69
2021/11/12 16:20:04;;;;;;;66.05;37.15;;;8.80;99.90;;;;;;5114374;28;20456;-69
2021/11/12 16:23:05;;;;;;;71.45;38.05;;;8.80;99.90;;;;;;5115022;28;20503;-70
2021/11/12 16:25:31;;;;;;;67.57;38.25;;;8.90;99.90;;;;;;5114633;28;20080;-69
2021/11/12 16:28:01;;;;;;;67.43;37.70;;;8.80;99.90;;;;;;5115345;28;20043;-69
2021/11/12 16:30:32;;;;;;;65.32;38.00;;;8.70;99.90;;;;;;5114655;28;20036;-69
2021/11/12 16:32:59;;;;;;;69.88;37.92;;;8.70;99.90;;;;;;5114736;27;20063;-69
2021/11/12 16:35:28;;;;;;;67.82;37.30;;;8.70;99.90;;;;;;5113761;28;20487;-69
2021/11/12 16:38:04;;;;;;;73.88;40.95;;;8.60;99.90;;;;;;5113649;28;20545;-70
2021/11/12 16:45:56;;;;;;;67.45;39.00;;;8.60;99.90;;;;;;5113528;28;20071;-69
2021/11/12 16:48:42;;;;;;;66.65;37.40;;;8.50;99.90;;;;;;5114776;28;20487;-69
2021/11/12 16:52:16;;;;;;;66.65;38.35;;;8.60;99.90;;;;;;5114294;28;20457;-69
2021/11/12 16:59:07;;;;;;;65.68;37.90;;;8.50;99.90;;;;;;5114167;28;20404;-69
2021/11/12 17:04:18;;;;;;;64.97;37.03;;;8.40;99.90;;;;;;5114391;28;20437;-70
2021/11/12 17:06:55;;;;;;;62.33;35.65;;;8.40;99.90;;;;;;5112178;28;20039;-69
2021/11/12 17:09:31;;;;;;;64.05;34.83;;;8.40;99.90;;;;;;5112437;28;20044;-69
2021/11/12 17:14:28;;;;;;;64.05;35.70;;;8.40;99.90;;;;;;5112889;28;20435;-70
2021/11/12 17:45:00;;;;;;;59.80;34.47;;;8.40;99.90;;;;;;5112313;28;20044;-69
2021/11/12 17:47:28;;;;;;;53.13;32.03;;;8.40;99.90;;;;;;5112694;28;20077;-70
2021/11/12 18:03:28;;;;;;;51.10;31.05;;;8.20;99.90;;;;;;5111941;28;20051;-69
2021/11/12 18:06:09;;;;;;;47.45;30.30;;;8.20;99.90;;;;;;5113223;28;20038;-69
2021/11/12 18:09:03;;;;;;;52.63;31.80;;;8.20;99.90;;;;;;5111869;28;20475;-69
2021/11/12 18:21:41;;;;;;;41.15;26.20;;;8.20;99.90;;;;;;5116219;28;20067;-69
2021/11/12 21:45:12;;;;;;;30.77;20.80;;;8.30;99.90;;;;;;5112651;28;20123;-69
2021/11/12 21:47:38;;;;;;;35.17;23.05;;;8.30;99.90;;;;;;5112967;28;20048;-69
2021/11/12 21:50:04;;;;;;;32.10;21.00;;;8.30;99.90;;;;;;5113729;28;20096;-69
2021/11/12 21:52:30;;;;;;;33.35;21.30;;;8.30;99.90;;;;;;5114129;28;20365;-69
2021/11/12 21:54:56;;;;;;;37.50;22.45;;;8.30;99.90;;;;;;5116613;28;20039;-69
2021/11/12 21:57:21;;;;;;;33.50;21.90;;;8.30;99.90;;;;;;5118049;28;20376;-69
2021/11/12 21:59:47;;;;;;;37.15;22.70;;;8.30;99.90;;;;;;5117549;28;20039;-69
2021/11/12 22:02:13;;;;;;;34.45;22.08;;;8.30;99.90;;;;;;5117793;28;20035;-68
2021/11/12 22:04:38;;;;;;;36.30;22.10;;;8.30;99.90;;;;;;5117840;28;20038;-69
2021/11/12 22:07:06;;;;;;;40.58;23.58;;;8.30;99.90;;;;;;5116220;28;20075;-69
2021/11/12 22:09:33;;;;;;;36.03;22.73;;;8.40;99.90;;;;;;5117261;28;20039;-69
2021/11/12 22:12:00;;;;;;;41.03;22.80;;;8.40;99.90;;;;;;5116046;28;20123;-69
2021/11/12 22:14:26;;;;;;;32.67;22.08;;;8.40;99.90;;;;;;5117296;28;20035;-69
2021/11/12 22:16:51;;;;;;;34.50;22.55;;;8.40;99.90;;;;;;5117432;28;20035;-69
2021/11/12 22:19:17;;;;;;;35.00;22.15;;;8.40;99.90;;;;;;5115424;28;20499;-70
2021/11/12 22:21:43;;;;;;;32.92;21.98;;;8.40;99.90;;;;;;5116452;28;20091;-69